sensor_id;sensor_type;location;lat;lon;timestamp;P1;durP1;ratioP1;P2;durP2;ratioP2
54171;SDS011;40076;52.354;4.970;2024-02-04T00:01:39;11.32;;;4.03;;
54171;SDS011;40076;52.354;4.970;2024-02-04T00:04:05;9.07;;;3.50;;
54171;SDS011;40076;52.354;4.970;2024-02-04T00:06:30;11.60;;;4.10;;
54171;SDS011;40076;52.354;4.970;2024-02-04T00:08:55;9.93;;;4.10;;
54171;SDS011;40076;52.354;4.970;2024-02-04T00:11:23;9.13;;;5.10;;
54171;SDS011;40076;52.354;4.970;2024-02-04T00:13:49;12.55;;;5.22;;
54171;SDS011;40076;52.354;4.970;2024-02-04T00:16:14;12.02;;;6.32;;
54171;SDS011;40076;52.354;4.970;2024-02-04T00:18:40;10.00;;;5.88;;
54171;SDS011;40076;52.354;4.970;2024-02-04T00:21:05;12.13;;;6.57;;
54171;SDS011;40076;52.354;4.970;2024-02-04T00:23:31;15.50;;;6.97;;
54171;SDS011;40076;52.354;4.970;2024-02-04T00:25:56;15.48;;;7.43;;
54171;SDS011;40076;52.354;4.970;2024-02-04T00:28:21;19.08;;;7.75;;
54171;SDS011;40076;52.354;4.970;2024-02-04T00:30:47;15.10;;;7.65;;
54171;SDS011;40076;52.354;4.970;2024-02-04T00:33:14;17.38;;;8.20;;
54171;SDS011;40076;52.354;4.970;2024-02-04T00:35:40;17.20;;;8.45;;
54171;SDS011;40076;52.354;4.970;2024-02-04T00:38:05;16.85;;;7.57;;
54171;SDS011;40076;52.354;4.970;2024-02-04T00:40:31;17.67;;;7.55;;
54171;SDS011;40076;52.354;4.970;2024-02-04T00:42:56;16.45;;;6.93;;
54171;SDS011;40076;52.354;4.970;2024-02-04T00:45:22;17.35;;;6.75;;
54171;SDS011;40076;52.354;4.970;2024-02-04T00:47:47;15.48;;;6.20;;
54171;SDS011;40076;52.354;4.970;2024-02-04T00:50:13;17.00;;;6.45;;
54171;SDS011;40076;52.354;4.970;2024-02-04T00:52:38;14.75;;;5.15;;
54171;SDS011;40076;52.354;4.970;2024-02-04T00:55:04;16.95;;;5.35;;
54171;SDS011;40076;52.354;4.970;2024-02-04T00:57:29;18.15;;;5.22;;
54171;SDS011;40076;52.354;4.970;2024-02-04T00:59:55;13.27;;;4.30;;
54171;SDS011;40076;52.354;4.970;2024-02-04T01:02:20;15.45;;;3.85;;
54171;SDS011;40076;52.354;4.970;2024-02-04T01:04:45;15.27;;;3.88;;
54171;SDS011;40076;52.354;4.970;2024-02-04T01:07:11;17.13;;;4.72;;
54171;SDS011;40076;52.354;4.970;2024-02-04T01:09:36;12.20;;;3.25;;
54171;SDS011;40076;52.354;4.970;2024-02-04T01:12:02;11.85;;;2.92;;
54171;SDS011;40076;52.354;4.970;2024-02-04T01:14:28;11.70;;;3.08;;
54171;SDS011;40076;52.354;4.970;2024-02-04T01:16:54;11.63;;;2.60;;
54171;SDS011;40076;52.354;4.970;2024-02-04T01:19:19;10.50;;;2.80;;
54171;SDS011;40076;52.354;4.970;2024-02-04T01:21:45;12.55;;;2.70;;
54171;SDS011;40076;52.354;4.970;2024-02-04T01:24:10;11.43;;;3.60;;
54171;SDS011;40076;52.354;4.970;2024-02-04T01:26:35;11.30;;;3.03;;
54171;SDS011;40076;52.354;4.970;2024-02-04T01:29:01;11.75;;;3.20;;
54171;SDS011;40076;52.354;4.970;2024-02-04T01:31:26;16.35;;;3.92;;
54171;SDS011;40076;52.354;4.970;2024-02-04T01:33:52;13.38;;;3.72;;
54171;SDS011;40076;52.354;4.970;2024-02-04T01:36:17;11.85;;;4.53;;
54171;SDS011;40076;52.354;4.970;2024-02-04T01:38:43;15.43;;;3.92;;
54171;SDS011;40076;52.354;4.970;2024-02-04T01:41:08;10.75;;;3.65;;
54171;SDS011;40076;52.354;4.970;2024-02-04T01:43:34;13.60;;;3.50;;
54171;SDS011;40076;52.354;4.970;2024-02-04T01:45:59;16.75;;;3.95;;
54171;SDS011;40076;52.354;4.970;2024-02-04T01:48:24;17.40;;;3.60;;
54171;SDS011;40076;52.354;4.970;2024-02-04T01:50:51;10.70;;;3.60;;
54171;SDS011;40076;52.354;4.970;2024-02-04T01:53:19;10.88;;;3.22;;
54171;SDS011;40076;52.354;4.970;2024-02-04T01:55:48;9.45;;;3.00;;
54171;SDS011;40076;52.354;4.970;2024-02-04T01:58:14;12.40;;;2.88;;
54171;SDS011;40076;52.354;4.970;2024-02-04T02:00:40;9.38;;;2.70;;
54171;SDS011;40076;52.354;4.970;2024-02-04T02:03:06;8.80;;;2.78;;
54171;SDS011;40076;52.354;4.970;2024-02-04T02:05:34;10.75;;;2.38;;
54171;SDS011;40076;52.354;4.970;2024-02-04T02:08:00;8.82;;;2.30;;
54171;SDS011;40076;52.354;4.970;2024-02-04T02:10:25;17.08;;;2.83;;
54171;SDS011;40076;52.354;4.970;2024-02-04T02:12:56;13.23;;;2.47;;
54171;SDS011;40076;52.354;4.970;2024-02-04T02:15:28;9.35;;;2.00;;
54171;SDS011;40076;52.354;4.970;2024-02-04T02:18:04;12.00;;;2.85;;
54171;SDS011;40076;52.354;4.970;2024-02-04T02:20:47;7.85;;;2.22;;
54171;SDS011;40076;52.354;4.970;2024-02-04T02:23:31;8.00;;;2.08;;
54171;SDS011;40076;52.354;4.970;2024-02-04T02:26:09;13.20;;;2.22;;
54171;SDS011;40076;52.354;4.970;2024-02-04T02:28:35;8.65;;;2.55;;
54171;SDS011;40076;52.354;4.970;2024-02-04T02:31:01;7.65;;;1.90;;
54171;SDS011;40076;52.354;4.970;2024-02-04T02:33:26;9.60;;;2.20;;
54171;SDS011;40076;52.354;4.970;2024-02-04T02:35:53;15.02;;;2.25;;
54171;SDS011;40076;52.354;4.970;2024-02-04T02:40:54;7.68;;;2.60;;
54171;SDS011;40076;52.354;4.970;2024-02-04T02:43:24;14.75;;;2.63;;
54171;SDS011;40076;52.354;4.970;2024-02-04T02:45:52;8.48;;;2.33;;
54171;SDS011;40076;52.354;4.970;2024-02-04T02:48:18;11.80;;;3.22;;
54171;SDS011;40076;52.354;4.970;2024-02-04T02:50:43;10.27;;;3.05;;
54171;SDS011;40076;52.354;4.970;2024-02-04T02:53:09;13.68;;;3.90;;
54171;SDS011;40076;52.354;4.970;2024-02-04T02:55:34;7.88;;;2.85;;
54171;SDS011;40076;52.354;4.970;2024-02-04T02:58:00;10.85;;;3.60;;
54171;SDS011;40076;52.354;4.970;2024-02-04T03:00:25;15.40;;;3.58;;
54171;SDS011;40076;52.354;4.970;2024-02-04T03:02:50;10.57;;;3.70;;
54171;SDS011;40076;52.354;4.970;2024-02-04T03:05:16;12.85;;;3.83;;
54171;SDS011;40076;52.354;4.970;2024-02-04T03:07:41;17.05;;;4.15;;
54171;SDS011;40076;52.354;4.970;2024-02-04T03:10:08;10.38;;;2.55;;
54171;SDS011;40076;52.354;4.970;2024-02-04T03:12:34;11.68;;;2.42;;
54171;SDS011;40076;52.354;4.970;2024-02-04T03:14:59;11.70;;;3.05;;
54171;SDS011;40076;52.354;4.970;2024-02-04T03:17:24;11.30;;;2.85;;
54171;SDS011;40076;52.354;4.970;2024-02-04T03:19:50;12.98;;;3.25;;
54171;SDS011;40076;52.354;4.970;2024-02-04T03:22:21;13.13;;;3.10;;
54171;SDS011;40076;52.354;4.970;2024-02-04T03:24:47;14.43;;;3.47;;
54171;SDS011;40076;52.354;4.970;2024-02-04T03:27:13;9.10;;;3.00;;
54171;SDS011;40076;52.354;4.970;2024-02-04T03:29:38;11.55;;;3.20;;
54171;SDS011;40076;52.354;4.970;2024-02-04T03:32:04;7.80;;;2.25;;
54171;SDS011;40076;52.354;4.970;2024-02-04T03:34:30;10.98;;;2.70;;
54171;SDS011;40076;52.354;4.970;2024-02-04T03:36:55;12.23;;;2.78;;
54171;SDS011;40076;52.354;4.970;2024-02-04T03:39:21;12.18;;;2.33;;
54171;SDS011;40076;52.354;4.970;2024-02-04T03:41:46;9.15;;;2.03;;
54171;SDS011;40076;52.354;4.970;2024-02-04T03:44:12;16.65;;;2.97;;
54171;SDS011;40076;52.354;4.970;2024-02-04T03:46:37;9.50;;;2.30;;
54171;SDS011;40076;52.354;4.970;2024-02-04T03:49:05;14.57;;;2.70;;
54171;SDS011;40076;52.354;4.970;2024-02-04T03:51:34;8.35;;;1.55;;
54171;SDS011;40076;52.354;4.970;2024-02-04T03:53:59;17.65;;;2.28;;
54171;SDS011;40076;52.354;4.970;2024-02-04T03:56:25;10.15;;;2.40;;
54171;SDS011;40076;52.354;4.970;2024-02-04T03:58:50;11.32;;;1.67;;
54171;SDS011;40076;52.354;4.970;2024-02-04T04:01:16;8.70;;;1.70;;
54171;SDS011;40076;52.354;4.970;2024-02-04T04:03:42;11.73;;;1.70;;
54171;SDS011;40076;52.354;4.970;2024-02-04T04:06:08;11.55;;;1.80;;
54171;SDS011;40076;52.354;4.970;2024-02-04T04:08:35;11.02;;;2.10;;
54171;SDS011;40076;52.354;4.970;2024-02-04T04:11:00;13.10;;;1.75;;
54171;SDS011;40076;52.354;4.970;2024-02-04T04:13:26;14.48;;;2.13;;
54171;SDS011;40076;52.354;4.970;2024-02-04T04:15:51;13.45;;;1.90;;
54171;SDS011;40076;52.354;4.970;2024-02-04T04:18:17;11.05;;;1.95;;
54171;SDS011;40076;52.354;4.970;2024-02-04T04:20:42;15.73;;;2.88;;
54171;SDS011;40076;52.354;4.970;2024-02-04T04:23:08;13.63;;;2.17;;
54171;SDS011;40076;52.354;4.970;2024-02-04T04:25:33;11.48;;;1.52;;
54171;SDS011;40076;52.354;4.970;2024-02-04T04:27:59;12.05;;;2.08;;
54171;SDS011;40076;52.354;4.970;2024-02-04T04:30:24;11.02;;;1.48;;
54171;SDS011;40076;52.354;4.970;2024-02-04T04:32:50;12.85;;;2.63;;
54171;SDS011;40076;52.354;4.970;2024-02-04T04:35:15;17.13;;;2.10;;
54171;SDS011;40076;52.354;4.970;2024-02-04T04:37:40;10.75;;;2.50;;
54171;SDS011;40076;52.354;4.970;2024-02-04T04:40:06;10.75;;;1.88;;
54171;SDS011;40076;52.354;4.970;2024-02-04T04:42:32;12.45;;;1.83;;
54171;SDS011;40076;52.354;4.970;2024-02-04T04:44:57;12.73;;;2.58;;
54171;SDS011;40076;52.354;4.970;2024-02-04T04:47:23;14.18;;;2.03;;
54171;SDS011;40076;52.354;4.970;2024-02-04T04:49:48;13.20;;;2.33;;
54171;SDS011;40076;52.354;4.970;2024-02-04T04:52:14;12.20;;;1.85;;
54171;SDS011;40076;52.354;4.970;2024-02-04T04:54:41;15.13;;;2.30;;
54171;SDS011;40076;52.354;4.970;2024-02-04T04:57:07;13.23;;;2.55;;
54171;SDS011;40076;52.354;4.970;2024-02-04T04:59:32;18.63;;;2.47;;
54171;SDS011;40076;52.354;4.970;2024-02-04T05:01:58;18.52;;;2.20;;
54171;SDS011;40076;52.354;4.970;2024-02-04T05:04:23;15.55;;;2.35;;
54171;SDS011;40076;52.354;4.970;2024-02-04T05:06:50;11.38;;;2.38;;
54171;SDS011;40076;52.354;4.970;2024-02-04T05:09:16;17.13;;;2.45;;
54171;SDS011;40076;52.354;4.970;2024-02-04T05:11:41;10.70;;;2.28;;
54171;SDS011;40076;52.354;4.970;2024-02-04T05:14:07;18.02;;;2.80;;
54171;SDS011;40076;52.354;4.970;2024-02-04T05:16:33;11.40;;;2.30;;
54171;SDS011;40076;52.354;4.970;2024-02-04T05:18:58;16.42;;;2.70;;
54171;SDS011;40076;52.354;4.970;2024-02-04T05:21:24;13.43;;;2.40;;
54171;SDS011;40076;52.354;4.970;2024-02-04T05:23:51;13.35;;;2.65;;
54171;SDS011;40076;52.354;4.970;2024-02-04T05:26:17;12.77;;;2.55;;
54171;SDS011;40076;52.354;4.970;2024-02-04T05:28:46;12.90;;;3.53;;
54171;SDS011;40076;52.354;4.970;2024-02-04T05:31:11;12.27;;;1.75;;
54171;SDS011;40076;52.354;4.970;2024-02-04T05:33:37;14.82;;;2.33;;
54171;SDS011;40076;52.354;4.970;2024-02-04T05:36:02;12.60;;;2.55;;
54171;SDS011;40076;52.354;4.970;2024-02-04T05:38:28;14.50;;;2.60;;
54171;SDS011;40076;52.354;4.970;2024-02-04T05:40:54;12.35;;;2.85;;
54171;SDS011;40076;52.354;4.970;2024-02-04T05:43:20;11.45;;;2.45;;
54171;SDS011;40076;52.354;4.970;2024-02-04T05:45:45;12.70;;;2.08;;
54171;SDS011;40076;52.354;4.970;2024-02-04T05:48:11;12.45;;;2.88;;
54171;SDS011;40076;52.354;4.970;2024-02-04T05:50:36;12.10;;;2.40;;
54171;SDS011;40076;52.354;4.970;2024-02-04T05:53:02;13.55;;;2.10;;
54171;SDS011;40076;52.354;4.970;2024-02-04T05:55:28;10.48;;;2.15;;
54171;SDS011;40076;52.354;4.970;2024-02-04T05:57:53;12.27;;;2.30;;
54171;SDS011;40076;52.354;4.970;2024-02-04T06:00:19;12.48;;;2.40;;
54171;SDS011;40076;52.354;4.970;2024-02-04T06:02:44;9.90;;;2.42;;
54171;SDS011;40076;52.354;4.970;2024-02-04T06:05:11;10.85;;;2.13;;
54171;SDS011;40076;52.354;4.970;2024-02-04T06:07:37;16.13;;;2.10;;
54171;SDS011;40076;52.354;4.970;2024-02-04T06:10:02;12.68;;;2.10;;
54171;SDS011;40076;52.354;4.970;2024-02-04T06:12:30;13.02;;;2.15;;
54171;SDS011;40076;52.354;4.970;2024-02-04T06:14:56;15.75;;;2.25;;
54171;SDS011;40076;52.354;4.970;2024-02-04T06:17:21;15.68;;;2.53;;
54171;SDS011;40076;52.354;4.970;2024-02-04T06:19:47;13.35;;;2.00;;
54171;SDS011;40076;52.354;4.970;2024-02-04T06:22:13;12.77;;;2.15;;
54171;SDS011;40076;52.354;4.970;2024-02-04T06:24:40;10.07;;;2.53;;
54171;SDS011;40076;52.354;4.970;2024-02-04T06:27:06;16.05;;;2.50;;
54171;SDS011;40076;52.354;4.970;2024-02-04T06:29:32;12.27;;;2.65;;
54171;SDS011;40076;52.354;4.970;2024-02-04T06:32:00;13.45;;;2.70;;
54171;SDS011;40076;52.354;4.970;2024-02-04T06:34:26;9.23;;;2.83;;
54171;SDS011;40076;52.354;4.970;2024-02-04T06:36:51;15.40;;;2.65;;
54171;SDS011;40076;52.354;4.970;2024-02-04T06:39:17;13.18;;;3.67;;
54171;SDS011;40076;52.354;4.970;2024-02-04T06:41:42;12.75;;;3.83;;
54171;SDS011;40076;52.354;4.970;2024-02-04T06:44:08;14.65;;;4.05;;
54171;SDS011;40076;52.354;4.970;2024-02-04T06:46:33;10.68;;;3.63;;
54171;SDS011;40076;52.354;4.970;2024-02-04T06:48:59;13.32;;;4.43;;
54171;SDS011;40076;52.354;4.970;2024-02-04T06:51:24;18.92;;;4.68;;
54171;SDS011;40076;52.354;4.970;2024-02-04T06:53:50;15.43;;;5.45;;
54171;SDS011;40076;52.354;4.970;2024-02-04T06:56:15;13.55;;;4.50;;
54171;SDS011;40076;52.354;4.970;2024-02-04T06:58:41;15.55;;;5.30;;
54171;SDS011;40076;52.354;4.970;2024-02-04T07:01:07;12.93;;;5.43;;
54171;SDS011;40076;52.354;4.970;2024-02-04T07:03:33;17.73;;;5.57;;
54171;SDS011;40076;52.354;4.970;2024-02-04T07:05:58;11.38;;;5.57;;
54171;SDS011;40076;52.354;4.970;2024-02-04T07:08:25;14.15;;;6.07;;
54171;SDS011;40076;52.354;4.970;2024-02-04T07:10:50;12.95;;;6.95;;
54171;SDS011;40076;52.354;4.970;2024-02-04T07:13:16;20.25;;;8.40;;
54171;SDS011;40076;52.354;4.970;2024-02-04T07:15:42;18.70;;;9.35;;
54171;SDS011;40076;52.354;4.970;2024-02-04T07:18:07;23.05;;;9.82;;
54171;SDS011;40076;52.354;4.970;2024-02-04T07:20:34;25.33;;;10.95;;
54171;SDS011;40076;52.354;4.970;2024-02-04T07:22:59;20.50;;;9.68;;
54171;SDS011;40076;52.354;4.970;2024-02-04T07:25:25;26.25;;;9.43;;
54171;SDS011;40076;52.354;4.970;2024-02-04T07:27:50;31.30;;;8.85;;
54171;SDS011;40076;52.354;4.970;2024-02-04T07:30:16;24.02;;;8.98;;
54171;SDS011;40076;52.354;4.970;2024-02-04T07:32:42;18.92;;;7.20;;
54171;SDS011;40076;52.354;4.970;2024-02-04T07:35:07;19.33;;;6.32;;
54171;SDS011;40076;52.354;4.970;2024-02-04T07:37:34;15.85;;;6.32;;
54171;SDS011;40076;52.354;4.970;2024-02-04T07:40:00;22.17;;;5.75;;
54171;SDS011;40076;52.354;4.970;2024-02-04T07:42:26;16.67;;;5.22;;
54171;SDS011;40076;52.354;4.970;2024-02-04T07:44:52;18.35;;;5.93;;
54171;SDS011;40076;52.354;4.970;2024-02-04T07:47:18;16.40;;;5.22;;
54171;SDS011;40076;52.354;4.970;2024-02-04T07:49:46;16.77;;;5.22;;
54171;SDS011;40076;52.354;4.970;2024-02-04T07:52:12;14.20;;;4.63;;
54171;SDS011;40076;52.354;4.970;2024-02-04T07:54:39;13.63;;;4.30;;
54171;SDS011;40076;52.354;4.970;2024-02-04T07:57:05;15.52;;;4.00;;
54171;SDS011;40076;52.354;4.970;2024-02-04T07:59:30;15.52;;;4.53;;
54171;SDS011;40076;52.354;4.970;2024-02-04T08:01:56;12.93;;;3.90;;
54171;SDS011;40076;52.354;4.970;2024-02-04T08:04:21;20.10;;;3.80;;
54171;SDS011;40076;52.354;4.970;2024-02-04T08:06:47;10.50;;;3.35;;
54171;SDS011;40076;52.354;4.970;2024-02-04T08:09:14;16.60;;;4.18;;
54171;SDS011;40076;52.354;4.970;2024-02-04T08:11:40;18.88;;;3.30;;
54171;SDS011;40076;52.354;4.970;2024-02-04T08:14:08;14.98;;;3.47;;
54171;SDS011;40076;52.354;4.970;2024-02-04T08:16:34;13.93;;;3.15;;
54171;SDS011;40076;52.354;4.970;2024-02-04T08:18:59;11.23;;;2.63;;
54171;SDS011;40076;52.354;4.970;2024-02-04T08:21:28;10.95;;;3.17;;
54171;SDS011;40076;52.354;4.970;2024-02-04T08:23:56;13.85;;;2.70;;
54171;SDS011;40076;52.354;4.970;2024-02-04T08:26:21;14.18;;;3.17;;
54171;SDS011;40076;52.354;4.970;2024-02-04T08:28:47;11.07;;;2.30;;
54171;SDS011;40076;52.354;4.970;2024-02-04T08:31:12;15.57;;;2.45;;
54171;SDS011;40076;52.354;4.970;2024-02-04T08:33:40;13.57;;;2.92;;
54171;SDS011;40076;52.354;4.970;2024-02-04T08:36:05;9.95;;;2.78;;
54171;SDS011;40076;52.354;4.970;2024-02-04T08:38:32;7.95;;;2.60;;
54171;SDS011;40076;52.354;4.970;2024-02-04T08:41:09;10.05;;;4.55;;
54171;SDS011;40076;52.354;4.970;2024-02-04T08:43:34;14.82;;;4.03;;
54171;SDS011;40076;52.354;4.970;2024-02-04T08:45:59;18.02;;;5.65;;
54171;SDS011;40076;52.354;4.970;2024-02-04T08:48:25;23.40;;;6.68;;
54171;SDS011;40076;52.354;4.970;2024-02-04T08:50:50;18.63;;;5.80;;
54171;SDS011;40076;52.354;4.970;2024-02-04T08:53:16;19.40;;;5.78;;
54171;SDS011;40076;52.354;4.970;2024-02-04T08:55:41;12.13;;;5.93;;
54171;SDS011;40076;52.354;4.970;2024-02-04T08:58:07;19.02;;;5.88;;
54171;SDS011;40076;52.354;4.970;2024-02-04T09:00:32;18.88;;;6.10;;
54171;SDS011;40076;52.354;4.970;2024-02-04T09:02:57;23.27;;;5.45;;
54171;SDS011;40076;52.354;4.970;2024-02-04T09:05:23;12.23;;;4.40;;
54171;SDS011;40076;52.354;4.970;2024-02-04T09:07:48;17.80;;;4.57;;
54171;SDS011;40076;52.354;4.970;2024-02-04T09:10:16;15.82;;;4.32;;
54171;SDS011;40076;52.354;4.970;2024-02-04T09:12:41;14.85;;;3.97;;
54171;SDS011;40076;52.354;4.970;2024-02-04T09:15:07;15.15;;;3.92;;
54171;SDS011;40076;52.354;4.970;2024-02-04T09:17:33;15.60;;;4.13;;
54171;SDS011;40076;52.354;4.970;2024-02-04T09:19:59;13.57;;;3.60;;
54171;SDS011;40076;52.354;4.970;2024-02-04T09:22:25;12.93;;;3.80;;
54171;SDS011;40076;52.354;4.970;2024-02-04T09:24:50;13.07;;;3.22;;
54171;SDS011;40076;52.354;4.970;2024-02-04T09:27:16;15.38;;;3.28;;
54171;SDS011;40076;52.354;4.970;2024-02-04T09:29:51;15.40;;;3.10;;
54171;SDS011;40076;52.354;4.970;2024-02-04T09:32:24;15.82;;;3.78;;
54171;SDS011;40076;52.354;4.970;2024-02-04T09:34:59;9.10;;;3.25;;
54171;SDS011;40076;52.354;4.970;2024-02-04T09:37:24;16.05;;;4.18;;
54171;SDS011;40076;52.354;4.970;2024-02-04T09:39:50;12.52;;;4.00;;
54171;SDS011;40076;52.354;4.970;2024-02-04T09:42:19;12.75;;;3.40;;
54171;SDS011;40076;52.354;4.970;2024-02-04T09:44:51;10.90;;;3.15;;
54171;SDS011;40076;52.354;4.970;2024-02-04T09:47:17;15.73;;;3.78;;
54171;SDS011;40076;52.354;4.970;2024-02-04T09:49:43;15.43;;;2.88;;
54171;SDS011;40076;52.354;4.970;2024-02-04T09:52:09;12.80;;;2.72;;
54171;SDS011;40076;52.354;4.970;2024-02-04T09:54:49;13.80;;;3.38;;
54171;SDS011;40076;52.354;4.970;2024-02-04T09:57:26;12.52;;;3.58;;
54171;SDS011;40076;52.354;4.970;2024-02-04T09:59:51;12.77;;;2.40;;
54171;SDS011;40076;52.354;4.970;2024-02-04T10:02:17;12.27;;;1.90;;
54171;SDS011;40076;52.354;4.970;2024-02-04T10:04:43;8.70;;;2.28;;
54171;SDS011;40076;52.354;4.970;2024-02-04T10:07:08;11.55;;;2.55;;
54171;SDS011;40076;52.354;4.970;2024-02-04T10:09:34;15.65;;;2.63;;
54171;SDS011;40076;52.354;4.970;2024-02-04T10:11:59;7.80;;;1.83;;
54171;SDS011;40076;52.354;4.970;2024-02-04T10:14:24;15.57;;;2.28;;
54171;SDS011;40076;52.354;4.970;2024-02-04T10:16:50;12.40;;;2.20;;
54171;SDS011;40076;52.354;4.970;2024-02-04T10:19:16;15.68;;;2.67;;
54171;SDS011;40076;52.354;4.970;2024-02-04T10:21:42;15.00;;;2.30;;
54171;SDS011;40076;52.354;4.970;2024-02-04T10:24:07;9.68;;;2.30;;
54171;SDS011;40076;52.354;4.970;2024-02-04T10:26:34;8.70;;;1.60;;
54171;SDS011;40076;52.354;4.970;2024-02-04T10:29:02;9.90;;;2.25;;
54171;SDS011;40076;52.354;4.970;2024-02-04T10:31:30;13.18;;;1.88;;
54171;SDS011;40076;52.354;4.970;2024-02-04T10:33:55;9.63;;;2.08;;
54171;SDS011;40076;52.354;4.970;2024-02-04T10:36:21;8.32;;;1.88;;
54171;SDS011;40076;52.354;4.970;2024-02-04T10:38:47;15.60;;;2.08;;
54171;SDS011;40076;52.354;4.970;2024-02-04T10:41:14;11.40;;;1.58;;
54171;SDS011;40076;52.354;4.970;2024-02-04T10:43:42;10.85;;;2.03;;
54171;SDS011;40076;52.354;4.970;2024-02-04T10:46:17;10.70;;;2.92;;
54171;SDS011;40076;52.354;4.970;2024-02-04T10:49:05;8.63;;;1.80;;
54171;SDS011;40076;52.354;4.970;2024-02-04T10:51:38;11.18;;;1.67;;
54171;SDS011;40076;52.354;4.970;2024-02-04T10:54:08;6.70;;;1.83;;
54171;SDS011;40076;52.354;4.970;2024-02-04T10:56:42;6.50;;;1.80;;
54171;SDS011;40076;52.354;4.970;2024-02-04T10:59:09;8.75;;;1.63;;
54171;SDS011;40076;52.354;4.970;2024-02-04T11:01:37;10.93;;;1.67;;
54171;SDS011;40076;52.354;4.970;2024-02-04T11:04:06;8.20;;;2.00;;
54171;SDS011;40076;52.354;4.970;2024-02-04T11:06:35;9.25;;;1.70;;
54171;SDS011;40076;52.354;4.970;2024-02-04T11:09:01;9.52;;;2.10;;
54171;SDS011;40076;52.354;4.970;2024-02-04T11:11:39;6.47;;;1.30;;
54171;SDS011;40076;52.354;4.970;2024-02-04T11:14:12;10.00;;;1.70;;
54171;SDS011;40076;52.354;4.970;2024-02-04T11:21:54;7.90;;;1.57;;
54171;SDS011;40076;52.354;4.970;2024-02-04T11:27:21;5.93;;;1.50;;
54171;SDS011;40076;52.354;4.970;2024-02-04T11:29:48;7.47;;;1.88;;
54171;SDS011;40076;52.354;4.970;2024-02-04T11:32:14;8.73;;;1.95;;
54171;SDS011;40076;52.354;4.970;2024-02-04T11:34:40;9.52;;;2.53;;
54171;SDS011;40076;52.354;4.970;2024-02-04T11:37:17;9.23;;;2.60;;
54171;SDS011;40076;52.354;4.970;2024-02-04T11:39:50;8.65;;;2.70;;
54171;SDS011;40076;52.354;4.970;2024-02-04T11:42:19;10.15;;;2.55;;
54171;SDS011;40076;52.354;4.970;2024-02-04T11:44:47;12.88;;;4.13;;
54171;SDS011;40076;52.354;4.970;2024-02-04T11:47:22;8.70;;;2.80;;
54171;SDS011;40076;52.354;4.970;2024-02-04T11:49:58;13.02;;;3.53;;
54171;SDS011;40076;52.354;4.970;2024-02-04T11:52:29;12.07;;;3.90;;
54171;SDS011;40076;52.354;4.970;2024-02-04T11:55:04;15.93;;;3.85;;
54171;SDS011;40076;52.354;4.970;2024-02-04T11:57:32;16.50;;;3.88;;
54171;SDS011;40076;52.354;4.970;2024-02-04T11:59:58;13.23;;;3.47;;
54171;SDS011;40076;52.354;4.970;2024-02-04T12:02:26;16.67;;;3.72;;
54171;SDS011;40076;52.354;4.970;2024-02-04T12:04:53;9.80;;;3.03;;
54171;SDS011;40076;52.354;4.970;2024-02-04T12:07:19;14.88;;;3.30;;
54171;SDS011;40076;52.354;4.970;2024-02-04T12:09:44;17.42;;;4.22;;
54171;SDS011;40076;52.354;4.970;2024-02-04T12:12:10;25.65;;;4.45;;
54171;SDS011;40076;52.354;4.970;2024-02-04T12:14:39;15.73;;;4.32;;
54171;SDS011;40076;52.354;4.970;2024-02-04T12:17:10;18.67;;;4.03;;
54171;SDS011;40076;52.354;4.970;2024-02-04T12:19:36;22.83;;;3.47;;
54171;SDS011;40076;52.354;4.970;2024-02-04T12:22:03;22.25;;;4.05;;
54171;SDS011;40076;52.354;4.970;2024-02-04T12:24:36;20.45;;;3.72;;
54171;SDS011;40076;52.354;4.970;2024-02-04T12:27:04;25.38;;;4.53;;
54171;SDS011;40076;52.354;4.970;2024-02-04T12:29:30;22.40;;;3.33;;
54171;SDS011;40076;52.354;4.970;2024-02-04T12:31:59;21.30;;;3.97;;
54171;SDS011;40076;52.354;4.970;2024-02-04T12:34:29;18.88;;;3.30;;
54171;SDS011;40076;52.354;4.970;2024-02-04T12:37:05;15.23;;;3.25;;
54171;SDS011;40076;52.354;4.970;2024-02-04T12:39:38;18.33;;;3.28;;
54171;SDS011;40076;52.354;4.970;2024-02-04T12:42:23;17.45;;;3.25;;
54171;SDS011;40076;52.354;4.970;2024-02-04T12:44:48;16.73;;;3.00;;
54171;SDS011;40076;52.354;4.970;2024-02-04T12:47:20;17.88;;;3.50;;
54171;SDS011;40076;52.354;4.970;2024-02-04T12:49:58;24.05;;;3.50;;
54171;SDS011;40076;52.354;4.970;2024-02-04T12:52:36;20.65;;;4.18;;
54171;SDS011;40076;52.354;4.970;2024-02-04T12:55:07;23.08;;;3.88;;
54171;SDS011;40076;52.354;4.970;2024-02-04T12:57:46;17.98;;;3.80;;
54171;SDS011;40076;52.354;4.970;2024-02-04T13:00:12;19.10;;;3.17;;
54171;SDS011;40076;52.354;4.970;2024-02-04T13:02:41;24.05;;;3.72;;
54171;SDS011;40076;52.354;4.970;2024-02-04T13:05:06;20.85;;;3.20;;
54171;SDS011;40076;52.354;4.970;2024-02-04T13:07:32;21.17;;;3.60;;
54171;SDS011;40076;52.354;4.970;2024-02-04T13:09:58;20.20;;;3.47;;
54171;SDS011;40076;52.354;4.970;2024-02-04T13:12:27;16.90;;;3.78;;
54171;SDS011;40076;52.354;4.970;2024-02-04T13:14:54;22.65;;;3.35;;
54171;SDS011;40076;52.354;4.970;2024-02-04T13:17:20;20.52;;;3.08;;
54171;SDS011;40076;52.354;4.970;2024-02-04T13:19:45;20.17;;;3.58;;
54171;SDS011;40076;52.354;4.970;2024-02-04T13:22:10;19.95;;;3.70;;
54171;SDS011;40076;52.354;4.970;2024-02-04T13:24:37;15.48;;;3.00;;
54171;SDS011;40076;52.354;4.970;2024-02-04T13:27:11;19.65;;;3.72;;
54171;SDS011;40076;52.354;4.970;2024-02-04T13:29:36;16.20;;;3.40;;
54171;SDS011;40076;52.354;4.970;2024-02-04T13:32:14;16.35;;;2.90;;
54171;SDS011;40076;52.354;4.970;2024-02-04T13:34:42;11.27;;;3.08;;
54171;SDS011;40076;52.354;4.970;2024-02-04T13:37:08;14.45;;;2.78;;
54171;SDS011;40076;52.354;4.970;2024-02-04T13:39:33;18.25;;;2.92;;
54171;SDS011;40076;52.354;4.970;2024-02-04T13:41:59;12.63;;;2.80;;
54171;SDS011;40076;52.354;4.970;2024-02-04T13:44:25;12.85;;;3.75;;
54171;SDS011;40076;52.354;4.970;2024-02-04T13:46:50;15.38;;;4.22;;
54171;SDS011;40076;52.354;4.970;2024-02-04T13:49:21;17.50;;;3.78;;
54171;SDS011;40076;52.354;4.970;2024-02-04T13:51:58;23.60;;;3.83;;
54171;SDS011;40076;52.354;4.970;2024-02-04T13:54:24;20.40;;;3.92;;
54171;SDS011;40076;52.354;4.970;2024-02-04T13:56:49;19.35;;;4.03;;
54171;SDS011;40076;52.354;4.970;2024-02-04T13:59:14;22.77;;;5.38;;
54171;SDS011;40076;52.354;4.970;2024-02-04T14:01:40;15.95;;;4.00;;
54171;SDS011;40076;52.354;4.970;2024-02-04T14:04:05;13.38;;;3.50;;
54171;SDS011;40076;52.354;4.970;2024-02-04T14:06:31;19.98;;;4.00;;
54171;SDS011;40076;52.354;4.970;2024-02-04T14:08:56;14.98;;;4.32;;
54171;SDS011;40076;52.354;4.970;2024-02-04T14:11:21;20.33;;;3.67;;
54171;SDS011;40076;52.354;4.970;2024-02-04T14:13:47;16.90;;;3.97;;
54171;SDS011;40076;52.354;4.970;2024-02-04T14:16:14;15.00;;;3.72;;
54171;SDS011;40076;52.354;4.970;2024-02-04T14:18:40;21.63;;;3.80;;
54171;SDS011;40076;52.354;4.970;2024-02-04T14:21:05;15.18;;;3.22;;
54171;SDS011;40076;52.354;4.970;2024-02-04T14:23:31;20.02;;;4.38;;
54171;SDS011;40076;52.354;4.970;2024-02-04T14:25:59;18.63;;;4.28;;
54171;SDS011;40076;52.354;4.970;2024-02-04T14:28:25;17.15;;;3.38;;
54171;SDS011;40076;52.354;4.970;2024-02-04T14:30:52;16.35;;;3.08;;
54171;SDS011;40076;52.354;4.970;2024-02-04T14:33:18;17.42;;;3.53;;
54171;SDS011;40076;52.354;4.970;2024-02-04T14:35:44;15.52;;;2.90;;
54171;SDS011;40076;52.354;4.970;2024-02-04T14:38:09;19.63;;;3.63;;
54171;SDS011;40076;52.354;4.970;2024-02-04T14:40:35;14.65;;;3.42;;
54171;SDS011;40076;52.354;4.970;2024-02-04T14:43:00;17.20;;;3.60;;
54171;SDS011;40076;52.354;4.970;2024-02-04T14:45:27;14.38;;;3.60;;